Time;durP1;ratioP1;P1;durP2;ratioP2;P2;SDS_P1;SDS_P2;PMS_P1;PMS_P2;Temp;Humidity;BMP_temperature;BMP_pressure;BME280_temperature;BME280_humidity;BME280_pressure;Samples;Min_cycle;Max_cycle;Signal;HPM_P1;HPM_P2
2021/07/08 00:02:02;;;;;;;;;;;23.80;77.50;;;;;;5182712;28;19925;-57
2021/07/08 00:04:36;;;;;;;;;;;23.80;77.50;;;;;;5201781;28;19925;-53
2021/07/08 00:07:12;;;;;;;;;;;23.80;77.50;;;;;;5200430;28;19925;-50
2021/07/08 00:09:44;;;;;;;;;;;23.80;77.60;;;;;;5201181;28;19936;-55
2021/07/08 00:12:16;;;;;;;;;;;23.80;77.50;;;;;;5199189;28;19948;-53
2021/07/08 00:14:48;;;;;;;;;;;23.80;77.50;;;;;;5192698;28;19929;-56
2021/07/08 00:17:21;;;;;;;;;;;23.80;77.50;;;;;;5205510;28;19925;-54
2021/07/08 00:19:53;;;;;;;;;;;23.80;77.50;;;;;;5206918;28;19925;-54
2021/07/08 00:22:25;;;;;;;;;;;23.80;77.50;;;;;;5207243;28;19982;-54
2021/07/08 00:24:57;;;;;;;;;;;23.80;77.50;;;;;;5201447;28;19920;-54
2021/07/08 00:27:30;;;;;;;;;;;23.80;77.60;;;;;;5186670;28;19931;-53
2021/07/08 00:30:04;;;;;;;;;;;23.80;77.50;;;;;;5205743;28;19932;-53
2021/07/08 00:32:37;;;;;;;;;;;23.80;77.50;;;;;;5185868;28;19932;-56
2021/07/08 00:35:10;;;;;;;;;;;23.80;77.50;;;;;;5205931;28;19991;-51
2021/07/08 00:37:42;;;;;;;;;;;23.80;77.50;;;;;;5200561;28;19925;-55
2021/07/08 00:40:15;;;;;;;;;;;23.80;77.50;;;;;;5182301;28;19929;-51
2021/07/08 00:42:47;;;;;;;;;;;23.80;77.40;;;;;;5195902;28;20384;-55
2021/07/08 00:45:20;;;;;;;;;;;23.80;77.40;;;;;;5201496;28;20270;-55
2021/07/08 00:47:53;;;;;;;;;;;23.80;77.40;;;;;;5196857;28;19924;-56
2021/07/08 00:50:28;;;;;;;;;;;23.80;77.40;;;;;;5200834;28;19929;-51
2021/07/08 00:53:01;;;;;;;;;;;23.80;77.40;;;;;;5182614;28;20312;-53
2021/07/08 00:55:34;;;;;;;;;;;23.80;77.40;;;;;;5203822;28;19921;-54
2021/07/08 00:58:09;;;;;;;;;;;23.80;77.30;;;;;;5201605;28;19927;-56
2021/07/08 01:00:42;;;;;;;;;;;23.80;77.30;;;;;;5185320;28;19929;-53
2021/07/08 01:03:14;;;;;;;;;;;23.80;77.30;;;;;;5203917;28;20313;-53
2021/07/08 01:05:48;;;;;;;;;;;23.80;77.40;;;;;;5202452;28;19924;-55
2021/07/08 01:08:21;;;;;;;;;;;23.80;77.40;;;;;;5183858;28;19931;-55
2021/07/08 01:10:53;;;;;;;;;;;23.80;77.30;;;;;;5203393;28;19924;-53
2021/07/08 01:13:26;;;;;;;;;;;23.80;77.30;;;;;;5202397;28;19935;-53
2021/07/08 01:15:59;;;;;;;;;;;23.80;77.70;;;;;;5189081;28;20404;-54
2021/07/08 01:18:31;;;;;;;;;;;23.80;77.30;;;;;;5200181;28;20251;-53
2021/07/08 01:21:19;;;;;;;;;;;23.80;77.20;;;;;;5199104;28;19921;-54
2021/07/08 01:23:52;;;;;;;;;;;23.80;77.20;;;;;;5186314;28;19925;-52
2021/07/08 01:26:24;;;;;;;;;;;23.80;77.30;;;;;;5200993;28;19920;-55
2021/07/08 01:28:57;;;;;;;;;;;23.80;77.20;;;;;;5190049;28;20404;-56
2021/07/08 01:31:29;;;;;;;;;;;23.80;77.20;;;;;;5204396;28;19925;-55
2021/07/08 01:34:02;;;;;;;;;;;23.80;77.20;;;;;;5192412;28;19932;-53
2021/07/08 01:36:34;;;;;;;;;;;23.80;77.20;;;;;;5203297;28;19932;-52
2021/07/08 01:39:06;;;;;;;;;;;23.70;77.10;;;;;;5200275;28;19921;-51
2021/07/08 01:41:39;;;;;;;;;;;23.80;77.20;;;;;;5201639;28;19924;-55
2021/07/08 01:44:12;;;;;;;;;;;23.80;77.20;;;;;;5202215;28;19924;-56
2021/07/08 01:46:44;;;;;;;;;;;23.80;77.20;;;;;;5194650;28;20186;-50
2021/07/08 01:49:17;;;;;;;;;;;23.80;77.20;;;;;;5189736;28;19925;-57
2021/07/08 01:51:50;;;;;;;;;;;23.80;77.10;;;;;;5204430;28;19928;-52
2021/07/08 01:54:22;;;;;;;;;;;23.70;77.10;;;;;;5211918;28;19920;-54
2021/07/08 01:56:54;;;;;;;;;;;23.80;77.10;;;;;;5202373;28;19929;-51
2021/07/08 01:59:27;;;;;;;;;;;23.70;77.10;;;;;;5202209;28;19940;-52
2021/07/08 02:01:59;;;;;;;;;;;23.70;77.00;;;;;;5205077;28;19924;-56
2021/07/08 02:04:31;;;;;;;;;;;23.70;77.00;;;;;;5203032;28;20311;-53
2021/07/08 02:07:04;;;;;;;;;;;23.70;77.00;;;;;;5204357;28;19940;-51
2021/07/08 02:09:36;;;;;;;;;;;23.70;77.00;;;;;;5196556;28;19936;-51
2021/07/08 02:12:10;;;;;;;;;;;23.70;77.00;;;;;;5204282;28;20277;-52
2021/07/08 02:14:42;;;;;;;;;;;23.70;77.00;;;;;;5196523;28;19931;-55
2021/07/08 02:17:14;;;;;;;;;;;23.70;77.00;;;;;;5200896;28;20401;-54
2021/07/08 02:19:47;;;;;;;;;;;23.70;77.00;;;;;;5187208;28;20500;-55
2021/07/08 02:22:19;;;;;;;;;;;23.70;77.00;;;;;;5190066;28;19920;-55
2021/07/08 02:24:52;;;;;;;;;;;23.70;77.00;;;;;;5195268;28;19925;-55
2021/07/08 02:27:24;;;;;;;;;;;23.70;77.00;;;;;;5200261;28;19944;-54
2021/07/08 02:29:57;;;;;;;;;;;23.70;77.00;;;;;;5207105;28;19947;-53
2021/07/08 02:32:29;;;;;;;;;;;23.70;77.00;;;;;;5192239;28;19925;-56
2021/07/08 02:35:02;;;;;;;;;;;23.70;76.90;;;;;;5185573;28;20577;-53
2021/07/08 02:37:35;;;;;;;;;;;23.70;76.90;;;;;;5204960;28;19928;-55
2021/07/08 02:40:09;;;;;;;;;;;23.70;76.90;;;;;;5180365;28;20403;-56
2021/07/08 02:42:46;;;;;;;;;;;23.70;76.90;;;;;;5197858;28;19925;-56
2021/07/08 02:45:21;;;;;;;;;;;23.70;76.90;;;;;;5202770;28;20440;-54
2021/07/08 02:47:54;;;;;;;;;;;23.70;77.00;;;;;;5211708;28;19929;-56
2021/07/08 02:50:27;;;;;;;;;;;23.70;76.90;;;;;;5199836;28;20344;-54
2021/07/08 02:52:59;;;;;;;;;;;23.70;76.90;;;;;;5199295;28;20391;-51
2021/07/08 02:55:32;;;;;;;;;;;23.70;76.90;;;;;;5202261;28;19925;-51
2021/07/08 02:58:04;;;;;;;;;;;23.70;76.90;;;;;;5184139;28;21040;-54
2021/07/08 03:00:37;;;;;;;;;;;23.70;76.90;;;;;;5204546;28;19921;-53
2021/07/08 03:03:11;;;;;;;;;;;23.70;76.90;;;;;;5187151;28;19921;-52
2021/07/08 03:05:43;;;;;;;;;;;23.70;76.90;;;;;;5193676;28;19928;-49
2021/07/08 03:08:15;;;;;;;;;;;23.70;76.90;;;;;;5195425;28;20317;-50
2021/07/08 03:10:47;;;;;;;;;;;23.70;76.80;;;;;;5182813;28;19936;-55
2021/07/08 03:13:20;;;;;;;;;;;23.70;76.80;;;;;;5203006;28;19928;-55
2021/07/08 03:15:52;;;;;;;;;;;23.70;76.80;;;;;;5196486;28;19932;-54
2021/07/08 03:18:25;;;;;;;;;;;23.70;76.80;;;;;;5189052;28;19921;-51
2021/07/08 03:20:57;;;;;;;;;;;23.70;76.80;;;;;;5191902;28;19932;-53
2021/07/08 03:23:30;;;;;;;;;;;23.70;76.80;;;;;;5199776;28;20208;-56
2021/07/08 03:26:03;;;;;;;;;;;23.70;76.80;;;;;;5187699;28;19932;-54
2021/07/08 03:28:35;;;;;;;;;;;23.70;76.80;;;;;;5202899;28;20411;-51
2021/07/08 03:31:07;;;;;;;;;;;23.70;76.80;;;;;;5204161;28;20245;-56
2021/07/08 03:33:40;;;;;;;;;;;23.70;76.80;;;;;;5193425;28;19921;-52
2021/07/08 03:36:12;;;;;;;;;;;23.70;76.80;;;;;;5191223;28;19925;-52
2021/07/08 03:38:44;;;;;;;;;;;23.70;76.80;;;;;;5201520;28;19924;-56
2021/07/08 03:41:17;;;;;;;;;;;23.70;76.80;;;;;;5205351;28;19929;-54
2021/07/08 03:43:49;;;;;;;;;;;23.70;76.80;;;;;;5201797;28;19921;-52
2021/07/08 03:46:21;;;;;;;;;;;23.70;76.70;;;;;;5184726;28;20397;-54
2021/07/08 03:48:54;;;;;;;;;;;23.70;76.80;;;;;;5199617;28;19929;-56
2021/07/08 03:51:26;;;;;;;;;;;23.70;76.80;;;;;;5188238;28;19929;-53
2021/07/08 03:53:58;;;;;;;;;;;23.70;76.80;;;;;;5209743;28;19943;-52
2021/07/08 03:56:31;;;;;;;;;;;23.70;76.80;;;;;;5192535;28;19928;-56
2021/07/08 03:59:03;;;;;;;;;;;23.70;76.80;;;;;;5193799;28;19932;-57
2021/07/08 04:01:36;;;;;;;;;;;23.70;76.80;;;;;;5178328;28;19928;-57
2021/07/08 04:04:08;;;;;;;;;;;23.70;76.80;;;;;;5199043;28;19925;-55
2021/07/08 04:06:40;;;;;;;;;;;23.70;76.80;;;;;;5182818;28;20380;-56
2021/07/08 04:09:13;;;;;;;;;;;23.70;76.80;;;;;;5197667;28;19927;-55
2021/07/08 04:11:45;;;;;;;;;;;23.70;76.90;;;;;;5195065;28;19929;-54
2021/07/08 04:14:17;;;;;;;;;;;23.70;76.80;;;;;;5170487;28;20160;-58
2021/07/08 04:16:50;;;;;;;;;;;23.70;76.80;;;;;;5198919;28;19929;-55
2021/07/08 04:19:22;;;;;;;;;;;23.70;76.90;;;;;;5194094;28;19928;-54
2021/07/08 04:21:55;;;;;;;;;;;23.70;76.80;;;;;;5184804;28;20404;-54
2021/07/08 04:24:27;;;;;;;;;;;23.70;76.90;;;;;;5197961;28;20252;-55
2021/07/08 04:26:59;;;;;;;;;;;23.70;76.90;;;;;;5198519;28;20443;-55
2021/07/08 04:29:32;;;;;;;;;;;23.70;76.80;;;;;;5179221;28;19936;-55
2021/07/08 04:32:04;;;;;;;;;;;23.70;76.80;;;;;;5199284;28;19921;-56
2021/07/08 04:34:37;;;;;;;;;;;23.70;76.80;;;;;;5177148;28;19928;-55
2021/07/08 04:37:09;;;;;;;;;;;23.70;76.80;;;;;;5197791;28;19928;-52
2021/07/08 04:39:41;;;;;;;;;;;23.70;76.80;;;;;;5177910;28;19929;-56
2021/07/08 04:42:14;;;;;;;;;;;23.70;76.90;;;;;;5194930;28;19925;-52
2021/07/08 04:44:47;;;;;;;;;;;23.70;76.90;;;;;;5188549;28;19935;-55
2021/07/08 04:47:19;;;;;;;;;;;23.70;76.80;;;;;;5191604;28;19929;-57
2021/07/08 04:49:52;;;;;;;;;;;23.70;76.80;;;;;;5180358;28;19936;-54
2021/07/08 04:52:24;;;;;;;;;;;23.70;76.80;;;;;;5206823;28;19928;-52
2021/07/08 04:54:57;;;;;;;;;;;23.70;76.80;;;;;;5204723;28;20282;-53
2021/07/08 04:57:29;;;;;;;;;;;23.70;76.80;;;;;;5201340;28;20373;-51
2021/07/08 05:00:03;;;;;;;;;;;23.70;76.90;;;;;;5204994;28;19924;-52
2021/07/08 05:02:37;;;;;;;;;;;23.70;77.50;;;;;;5188495;28;19929;-54
2021/07/08 05:05:09;;;;;;;;;;;23.60;77.20;;;;;;5199057;28;19936;-51
2021/07/08 05:07:42;;;;;;;;;;;23.70;77.00;;;;;;5198249;28;20388;-50
2021/07/08 05:10:15;;;;;;;;;;;23.60;77.20;;;;;;5185694;28;20304;-51
2021/07/08 05:12:48;;;;;;;;;;;23.60;77.00;;;;;;5158009;28;19936;-54
2021/07/08 05:15:21;;;;;;;;;;;23.60;77.10;;;;;;5188658;28;19935;-53
2021/07/08 05:17:53;;;;;;;;;;;23.60;77.40;;;;;;5175722;28;20389;-53
2021/07/08 05:20:27;;;;;;;;;;;23.60;77.40;;;;;;5188024;28;20388;-56
2021/07/08 05:23:07;;;;;;;;;;;23.60;77.70;;;;;;5186928;28;19936;-54
2021/07/08 05:25:39;;;;;;;;;;;23.70;77.30;;;;;;5199071;28;20411;-52
2021/07/08 05:28:12;;;;;;;;;;;23.70;77.20;;;;;;5198823;28;19925;-50
2021/07/08 05:30:44;;;;;;;;;;;23.70;77.20;;;;;;5190944;28;19935;-51
2021/07/08 05:33:17;;;;;;;;;;;23.70;77.10;;;;;;5187616;28;19937;-56
2021/07/08 05:35:49;;;;;;;;;;;23.70;77.20;;;;;;5195651;28;19925;-50
2021/07/08 05:38:21;;;;;;;;;;;23.70;77.40;;;;;;5201123;28;20408;-56
2021/07/08 05:40:53;;;;;;;;;;;23.70;77.30;;;;;;5188747;28;19928;-53
2021/07/08 05:43:26;;;;;;;;;;;23.70;77.40;;;;;;5191566;28;20415;-51
2021/07/08 05:45:58;;;;;;;;;;;23.70;77.50;;;;;;5197528;28;19925;-53
2021/07/08 05:48:30;;;;;;;;;;;23.70;77.40;;;;;;5186531;28;19932;-52
2021/07/08 05:51:03;;;;;;;;;;;23.60;77.40;;;;;;5202907;28;20414;-53
2021/07/08 05:53:35;;;;;;;;;;;23.60;77.40;;;;;;5199215;28;19925;-53
2021/07/08 05:56:07;;;;;;;;;;;23.60;77.50;;;;;;5201777;28;19932;-56
2021/07/08 05:58:40;;;;;;;;;;;23.60;77.50;;;;;;5202478;28;19936;-53
2021/07/08 06:01:12;;;;;;;;;;;23.60;77.60;;;;;;5192508;28;19928;-56
2021/07/08 06:03:44;;;;;;;;;;;23.60;77.60;;;;;;5202616;28;19924;-55
2021/07/08 06:06:17;;;;;;;;;;;23.60;77.40;;;;;;5199269;28;20385;-54
2021/07/08 06:08:49;;;;;;;;;;;23.60;77.30;;;;;;5198243;28;19924;-53
2021/07/08 06:11:21;;;;;;;;;;;23.60;77.40;;;;;;5199413;28;20355;-57
2021/07/08 06:13:54;;;;;;;;;;;23.60;77.50;;;;;;5202140;28;20407;-55
2021/07/08 06:16:26;;;;;;;;;;;23.70;77.40;;;;;;5198521;28;19944;-53
2021/07/08 06:18:58;;;;;;;;;;;23.70;77.40;;;;;;5199008;28;19931;-60
2021/07/08 06:21:31;;;;;;;;;;;23.70;77.50;;;;;;5194081;28;19931;-60
2021/07/08 06:24:03;;;;;;;;;;;23.70;77.50;;;;;;5198920;28;19928;-60
2021/07/08 06:26:36;;;;;;;;;;;23.70;78.60;;;;;;5200337;28;19932;-60
2021/07/08 06:29:08;;;;;;;;;;;23.60;78.90;;;;;;5195222;28;19936;-59
2021/07/08 06:31:40;;;;;;;;;;;23.50;79.70;;;;;;5194715;28;20014;-58
2021/07/08 06:34:13;;;;;;;;;;;23.50;80.60;;;;;;5195528;28;19921;-59
2021/07/08 06:36:45;;;;;;;;;;;23.40;80.50;;;;;;5164570;28;19925;-59
2021/07/08 06:39:17;;;;;;;;;;;23.30;80.70;;;;;;5198606;28;20312;-58
2021/07/08 06:41:50;;;;;;;;;;;23.10;82.10;;;;;;5201795;28;19925;-59
2021/07/08 06:44:22;;;;;;;;;;;22.90;83.50;;;;;;5184715;28;20294;-60
2021/07/08 06:46:54;;;;;;;;;;;22.80;84.60;;;;;;5196591;28;19936;-59
2021/07/08 06:49:28;;;;;;;;;;;22.60;85.90;;;;;;5193940;28;19936;-59
2021/07/08 06:52:00;;;;;;;;;;;22.50;87.40;;;;;;5195996;28;19936;-59
2021/07/08 06:54:33;;;;;;;;;;;22.40;87.60;;;;;;5201783;28;19925;-59
2021/07/08 06:57:05;;;;;;;;;;;22.30;87.60;;;;;;5196521;28;19943;-58
2021/07/08 06:59:37;;;;;;;;;;;22.30;88.70;;;;;;5205234;28;20158;-59
2021/07/08 07:02:10;;;;;;;;;;;22.20;88.70;;;;;;5200105;28;19932;-59
2021/07/08 07:04:42;;;;;;;;;;;22.20;89.10;;;;;;5200106;28;20316;-59
2021/07/08 07:07:15;;;;;;;;;;;22.10;89.60;;;;;;5192380;28;19928;-58
2021/07/08 07:09:47;;;;;;;;;;;22.00;90.00;;;;;;5200609;28;19925;-59
2021/07/08 07:12:20;;;;;;;;;;;22.00;90.20;;;;;;5198204;28;20547;-59
2021/07/08 07:14:52;;;;;;;;;;;21.90;90.50;;;;;;5196112;28;19925;-59
2021/07/08 07:17:25;;;;;;;;;;;21.90;90.90;;;;;;5193324;28;19932;-60
2021/07/08 07:19:57;;;;;;;;;;;21.90;90.90;;;;;;5173875;28;19925;-59
2021/07/08 07:22:29;;;;;;;;;;;21.90;90.90;;;;;;5183548;28;19925;-58
2021/07/08 07:25:03;;;;;;;;;;;21.90;91.30;;;;;;5196879;28;19929;-58
2021/07/08 07:27:35;;;;;;;;;;;21.90;90.80;;;;;;5199399;28;19925;-58
2021/07/08 07:30:08;;;;;;;;;;;22.00;90.20;;;;;;5195884;28;20419;-58
2021/07/08 07:32:40;;;;;;;;;;;22.10;89.80;;;;;;5186438;28;19927;-58
2021/07/08 07:35:12;;;;;;;;;;;22.20;88.40;;;;;;5197088;28;19929;-56
2021/07/08 07:37:45;;;;;;;;;;;22.30;87.50;;;;;;5183808;28;19956;-58
2021/07/08 07:40:18;;;;;;;;;;;22.40;86.80;;;;;;5195817;28;19968;-58
2021/07/08 07:42:50;;;;;;;;;;;22.40;86.10;;;;;;5192849;28;19929;-58
2021/07/08 07:45:24;;;;;;;;;;;22.50;85.80;;;;;;5193081;28;19933;-59
2021/07/08 07:47:56;;;;;;;;;;;22.60;85.00;;;;;;5198767;28;19932;-58
2021/07/08 07:50:32;;;;;;;;;;;22.60;84.50;;;;;;5176575;28;19936;-58
2021/07/08 07:53:04;;;;;;;;;;;22.70;84.30;;;;;;5195086;28;19921;-58
2021/07/08 07:55:37;;;;;;;;;;;22.70;84.00;;;;;;5195855;28;20182;-57
2021/07/08 07:58:09;;;;;;;;;;;22.70;83.70;;;;;;5190064;28;19929;-58
2021/07/08 08:00:41;;;;;;;;;;;22.80;84.20;;;;;;5198407;28;19936;-55
2021/07/08 08:03:13;;;;;;;;;;;22.80;83.30;;;;;;5193605;28;19931;-56
2021/07/08 08:05:57;;;;;;;;;;;22.80;83.20;;;;;;5194671;28;19924;-58
2021/07/08 08:08:34;;;;;;;;;;;22.90;83.10;;;;;;5189814;28;20546;-58
2021/07/08 08:11:08;;;;;;;;;;;22.90;82.90;;;;;;5198993;28;19925;-56
2021/07/08 08:13:41;;;;;;;;;;;22.90;82.70;;;;;;5195810;28;19928;-58
2021/07/08 08:16:13;;;;;;;;;;;23.00;82.60;;;;;;5193092;28;19928;-58
2021/07/08 08:18:46;;;;;;;;;;;23.00;82.40;;;;;;5199802;28;20401;-58
2021/07/08 08:21:18;;;;;;;;;;;23.00;82.20;;;;;;5202033;28;19935;-55
2021/07/08 08:23:50;;;;;;;;;;;23.00;82.10;;;;;;5203658;28;19957;-58
2021/07/08 08:26:23;;;;;;;;;;;23.00;82.00;;;;;;5188523;28;20067;-58
2021/07/08 08:28:55;;;;;;;;;;;23.00;81.80;;;;;;5204144;28;19928;-56
2021/07/08 08:31:28;;;;;;;;;;;23.10;81.80;;;;;;5204344;28;20043;-58
2021/07/08 08:34:01;;;;;;;;;;;23.10;81.70;;;;;;5207728;28;19924;-58
2021/07/08 08:36:33;;;;;;;;;;;23.10;81.60;;;;;;5203993;28;19935;-58
2021/07/08 08:39:06;;;;;;;;;;;23.10;81.50;;;;;;5203780;28;19931;-56
2021/07/08 08:41:41;;;;;;;;;;;23.10;81.40;;;;;;5190259;28;19924;-57
2021/07/08 08:44:14;;;;;;;;;;;23.10;81.30;;;;;;5213557;28;19928;-58
2021/07/08 08:46:46;;;;;;;;;;;23.10;81.10;;;;;;5200341;28;19953;-58
2021/07/08 08:49:18;;;;;;;;;;;23.10;81.10;;;;;;5204263;28;19929;-56
2021/07/08 08:51:51;;;;;;;;;;;23.20;81.10;;;;;;5184963;28;20492;-58
2021/07/08 08:54:24;;;;;;;;;;;23.10;81.00;;;;;;5183684;28;19927;-57
2021/07/08 08:56:57;;;;;;;;;;;23.20;81.00;;;;;;5187018;28;19924;-58
2021/07/08 08:59:29;;;;;;;;;;;23.20;80.90;;;;;;5202134;28;19929;-58
2021/07/08 09:02:11;;;;;;;;;;;23.20;80.80;;;;;;5188055;28;20456;-58
2021/07/08 09:04:44;;;;;;;;;;;23.20;80.80;;;;;;5186387;28;19925;-58
2021/07/08 09:07:27;;;;;;;;;;;23.20;80.80;;;;;;5187490;28;19925;-56
2021/07/08 09:10:00;;;;;;;;;;;23.20;80.80;;;;;;5200194;28;19936;-58
2021/07/08 09:12:34;;;;;;;;;;;23.20;80.60;;;;;;5199141;28;19935;-58
2021/07/08 09:15:16;;;;;;;;;;;23.20;80.50;;;;;;5195478;28;19928;-58
2021/07/08 09:17:48;;;;;;;;;;;23.20;80.50;;;;;;5183514;28;20115;-57
2021/07/08 09:20:21;;;;;;;;;;;23.20;80.50;;;;;;5196976;28;19925;-59
2021/07/08 09:23:06;;;;;;;;;;;23.30;80.40;;;;;;5196133;28;19932;-58
2021/07/08 09:25:39;;;;;;;;;;;23.20;80.30;;;;;;5198560;28;19936;-55
2021/07/08 09:28:15;;;;;;;;;;;23.20;80.20;;;;;;5195912;28;19951;-58
2021/07/08 09:30:55;;;;;;;;;;;23.30;80.30;;;;;;5200372;28;20505;-57
2021/07/08 09:33:30;;;;;;;;;;;23.20;80.20;;;;;;5198813;28;20564;-58
2021/07/08 09:36:03;;;;;;;;;;;23.30;80.20;;;;;;5199841;28;19925;-58
2021/07/08 09:38:37;;;;;;;;;;;23.30;80.10;;;;;;5200794;28;19929;-58
2021/07/08 09:41:10;;;;;;;;;;;23.30;80.10;;;;;;5194125;28;19929;-58
2021/07/08 09:43:46;;;;;;;;;;;23.30;80.10;;;;;;5183150;28;19960;-58
2021/07/08 09:46:31;;;;;;;;;;;23.30;80.10;;;;;;5198734;28;19924;-55
2021/07/08 09:49:05;;;;;;;;;;;23.30;80.00;;;;;;5205098;28;19967;-57
2021/07/08 09:51:41;;;;;;;;;;;23.30;80.00;;;;;;5202215;28;19983;-58
2021/07/08 09:56:49;;;;;;;;;;;23.30;80.00;;;;;;5199222;28;19920;-58
2021/07/08 09:59:32;;;;;;;;;;;23.30;79.90;;;;;;5199557;28;20420;-57
2021/07/08 10:02:04;;;;;;;;;;;23.30;79.80;;;;;;5200759;28;19929;-56
2021/07/08 10:04:38;;;;;;;;;;;23.30;79.80;;;;;;5202920;28;19925;-58
2021/07/08 10:07:10;;;;;;;;;;;23.40;79.80;;;;;;5196177;28;20793;-57
2021/07/08 10:09:43;;;;;;;;;;;23.40;79.70;;;;;;5200178;28;20381;-57
2021/07/08 10:12:15;;;;;;;;;;;23.40;79.70;;;;;;5196939;28;19921;-58
2021/07/08 10:14:48;;;;;;;;;;;23.40;79.70;;;;;;5199114;28;19975;-58
2021/07/08 10:17:23;;;;;;;;;;;23.40;80.20;;;;;;5196392;28;19925;-58
2021/07/08 10:19:55;;;;;;;;;;;23.40;79.60;;;;;;5201251;28;19920;-58
2021/07/08 10:22:28;;;;;;;;;;;23.40;79.60;;;;;;5196432;28;19931;-57
2021/07/08 10:25:00;;;;;;;;;;;23.40;79.70;;;;;;5202354;28;19944;-59
2021/07/08 10:27:33;;;;;;;;;;;23.40;79.70;;;;;;5196148;28;19958;-59
2021/07/08 10:30:06;;;;;;;;;;;23.40;79.80;;;;;;5176536;28;19947;-59
2021/07/08 10:32:38;;;;;;;;;;;23.40;80.00;;;;;;5184694;28;19935;-57
2021/07/08 10:35:10;;;;;;;;;;;23.40;80.00;;;;;;5186085;28;19936;-58
2021/07/08 10:37:44;;;;;;;;;;;23.40;80.20;;;;;;5199702;28;19920;-58
2021/07/08 10:40:25;;;;;;;;;;;23.40;80.20;;;;;;5202402;28;19921;-58
2021/07/08 10:43:12;;;;;;;;;;;23.40;80.20;;;;;;5179535;28;19921;-59
2021/07/08 10:45:46;;;;;;;;;;;23.40;80.40;;;;;;5177774;28;19928;-57
2021/07/08 10:48:21;;;;;;;;;;;23.40;80.60;;;;;;5197738;28;19924;-58
2021/07/08 10:50:55;;;;;;;;;;;23.40;80.60;;;;;;5175670;28;19924;-58
2021/07/08 10:53:27;;;;;;;;;;;23.40;80.70;;;;;;5188413;28;19936;-58
2021/07/08 10:56:07;;;;;;;;;;;23.40;80.90;;;;;;5177102;28;19936;-58
2021/07/08 10:58:40;;;;;;;;;;;23.50;81.00;;;;;;5192309;28;20175;-58
2021/07/08 11:01:22;;;;;;;;;;;23.50;80.90;;;;;;5183559;28;19936;-59
2021/07/08 11:03:58;;;;;;;;;;;23.50;81.10;;;;;;5188782;28;19924;-57
2021/07/08 11:06:38;;;;;;;;;;;23.50;80.90;;;;;;5187517;28;19936;-56
2021/07/08 11:09:11;;;;;;;;;;;23.50;81.00;;;;;;5179762;28;19936;-59
2021/07/08 11:11:46;;;;;;;;;;;23.50;81.10;;;;;;5173589;28;19925;-59
2021/07/08 11:14:24;;;;;;;;;;;23.50;81.00;;;;;;5174991;28;19929;-58
2021/07/08 11:16:58;;;;;;;;;;;23.50;80.90;;;;;;5168551;28;19925;-58
2021/07/08 11:19:32;;;;;;;;;;;23.50;80.90;;;;;;5172426;28;19921;-59
2021/07/08 11:22:10;;;;;;;;;;;23.50;81.00;;;;;;5161555;28;19929;-58
2021/07/08 11:24:47;;;;;;;;;;;23.50;81.10;;;;;;5183445;28;19921;-57
2021/07/08 11:27:23;;;;;;;;;;;23.60;81.00;;;;;;5165340;28;19925;-58
2021/07/08 11:29:58;;;;;;;;;;;23.50;81.00;;;;;;5176221;28;19924;-58
2021/07/08 11:32:46;;;;;;;;;;;23.60;81.00;;;;;;5184138;28;19929;-59
2021/07/08 11:35:29;;;;;;;;;;;23.60;80.90;;;;;;5185554;28;19921;-58
2021/07/08 11:38:01;;;;;;;;;;;23.70;80.70;;;;;;5188975;28;19936;-57
2021/07/08 11:40:38;;;;;;;;;;;23.70;80.50;;;;;;5191820;28;19925;-58
2021/07/08 11:43:13;;;;;;;;;;;23.70;80.30;;;;;;5190012;28;20011;-56
2021/07/08 11:45:51;;;;;;;;;;;23.70;80.50;;;;;;5196560;28;19921;-57
2021/07/08 11:48:23;;;;;;;;;;;23.70;80.40;;;;;;5179205;28;20332;-57
2021/07/08 11:51:12;;;;;;;;;;;23.80;80.40;;;;;;5188777;28;19959;-54
2021/07/08 11:53:45;;;;;;;;;;;23.80;80.10;;;;;;4485886;28;10000262;-58
2021/07/08 11:56:19;;;;;;;;;;;23.80;79.90;;;;;;5174312;28;19928;-58
2021/07/08 11:58:52;;;;;;;;;;;23.80;79.90;;;;;;5167767;28;19935;-58
2021/07/08 12:01:24;;;;;;;;;;;23.90;79.70;;;;;;5191945;28;19955;-59
2021/07/08 12:03:57;;;;;;;;;;;23.90;79.60;;;;;;5197033;28;19936;-59
2021/07/08 12:06:30;;;;;;;;;;;23.90;79.60;;;;;;5182904;28;19928;-59
2021/07/08 12:09:06;;;;;;;;;;;23.90;79.40;;;;;;5190862;28;20802;-60
2021/07/08 12:11:42;;;;;;;;;;;23.90;79.40;;;;;;5194294;28;19931;-59
2021/07/08 12:14:15;;;;;;;;;;;24.00;79.30;;;;;;5189695;28;21782;-59
2021/07/08 12:16:49;;;;;;;;;;;24.00;79.30;;;;;;5190650;28;19925;-57
2021/07/08 12:19:23;;;;;;;;;;;24.00;79.30;;;;;;5181547;28;19951;-59
2021/07/08 12:21:57;;;;;;;;;;;24.00;79.20;;;;;;5186566;28;20546;-59
2021/07/08 12:24:30;;;;;;;;;;;24.00;79.10;;;;;;5183672;28;19929;-59
2021/07/08 12:27:03;;;;;;;;;;;24.00;79.20;;;;;;5187026;28;19929;-59
2021/07/08 12:29:37;;;;;;;;;;;24.00;79.10;;;;;;5176836;28;19929;-58
2021/07/08 12:32:09;;;;;;;;;;;24.00;79.00;;;;;;5187156;28;20534;-59
2021/07/08 12:34:46;;;;;;;;;;;24.00;79.00;;;;;;5191837;28;19929;-59
2021/07/08 12:37:22;;;;;;;;;;;24.00;78.90;;;;;;5191744;28;19925;-59
2021/07/08 12:40:05;;;;;;;;;;;24.00;78.90;;;;;;5198152;28;19921;-58
2021/07/08 12:42:39;;;;;;;;;;;24.10;79.00;;;;;;5169720;28;19925;-58
2021/07/08 12:45:13;;;;;;;;;;;24.10;79.10;;;;;;5185196;28;21135;-58
2021/07/08 12:47:50;;;;;;;;;;;24.00;78.90;;;;;;5182611;28;19937;-60
2021/07/08 12:50:25;;;;;;;;;;;24.00;78.80;;;;;;5190027;28;19925;-59
2021/07/08 12:52:58;;;;;;;;;;;24.00;78.80;;;;;;5192494;28;19925;-58
2021/07/08 12:55:52;;;;;;;;;;;24.00;78.80;;;;;;5193377;28;19921;-59
2021/07/08 12:58:26;;;;;;;;;;;24.00;78.70;;;;;;5202705;28;19929;-57
2021/07/08 13:01:03;;;;;;;;;;;24.00;78.60;;;;;;5189874;28;19925;-57
2021/07/08 13:03:39;;;;;;;;;;;24.00;78.60;;;;;;5180483;28;19943;-58
2021/07/08 13:06:14;;;;;;;;;;;24.00;78.50;;;;;;5188661;28;19925;-57
2021/07/08 13:08:47;;;;;;;;;;;24.00;78.60;;;;;;5185993;28;19929;-58
2021/07/08 13:11:22;;;;;;;;;;;24.00;78.50;;;;;;5191886;28;19921;-56
2021/07/08 13:13:54;;;;;;;;;;;24.10;78.50;;;;;;5198126;28;19924;-58
2021/07/08 13:16:32;;;;;;;;;;;24.10;78.70;;;;;;5184915;28;21748;-54
2021/07/08 13:19:13;;;;;;;;;;;24.10;78.70;;;;;;5180825;28;19921;-57
2021/07/08 13:21:45;;;;;;;;;;;24.10;78.50;;;;;;5185796;28;19928;-58
2021/07/08 13:24:22;;;;;;;;;;;24.10;78.50;;;;;;5204612;28;19924;-58
2021/07/08 13:26:54;;;;;;;;;;;24.10;78.50;;;;;;5199207;28;20047;-59
2021/07/08 13:29:26;;;;;;;;;;;24.10;78.50;;;;;;5199228;28;20035;-59
2021/07/08 13:31:59;;;;;;;;;;;24.10;78.30;;;;;;5197277;28;19932;-57
2021/07/08 13:34:31;;;;;;;;;;;24.10;78.30;;;;;;5206225;28;19944;-57
2021/07/08 13:37:04;;;;;;;;;;;24.10;78.20;;;;;;5204142;28;20392;-57
2021/07/08 13:39:36;;;;;;;;;;;24.20;78.20;;;;;;5195055;28;19925;-58
2021/07/08 13:42:08;;;;;;;;;;;24.20;78.30;;;;;;5199949;28;19924;-58
2021/07/08 13:44:41;;;;;;;;;;;24.20;78.30;;;;;;5179806;28;21608;-58
2021/07/08 13:47:13;;;;;;;;;;;24.20;78.20;;;;;;5193756;28;20230;-58
2021/07/08 13:49:45;;;;;;;;;;;24.20;78.10;;;;;;5177661;28;19925;-59
2021/07/08 13:52:22;;;;;;;;;;;24.10;78.10;;;;;;5192429;28;19925;-58
2021/07/08 13:54:54;;;;;;;;;;;24.10;78.10;;;;;;5189791;28;19928;-57
2021/07/08 13:57:26;;;;;;;;;;;24.10;78.10;;;;;;5181583;28;19924;-58
2021/07/08 14:00:00;;;;;;;;;;;24.10;78.00;;;;;;5183784;28;19929;-59
2021/07/08 14:02:32;;;;;;;;;;;24.10;77.90;;;;;;5180909;28;19944;-57
2021/07/08 14:05:04;;;;;;;;;;;24.20;77.90;;;;;;5172149;28;20416;-55
2021/07/08 14:07:37;;;;;;;;;;;24.20;77.80;;;;;;5165160;28;20281;-58
2021/07/08 14:10:09;;;;;;;;;;;24.20;77.70;;;;;;5183942;28;19929;-58
2021/07/08 14:12:41;;;;;;;;;;;24.30;77.60;;;;;;5184270;28;19928;-58
2021/07/08 14:15:14;;;;;;;;;;;24.30;77.40;;;;;;5184342;28;20100;-59
2021/07/08 14:17:46;;;;;;;;;;;24.30;77.30;;;;;;3807613;28;10000885;-56
2021/07/08 14:20:18;;;;;;;;;;;24.30;77.20;;;;;;5193764;28;19925;-58
2021/07/08 14:22:51;;;;;;;;;;;24.30;77.30;;;;;;5191538;28;20935;-58
2021/07/08 14:25:23;;;;;;;;;;;24.30;77.40;;;;;;5200435;28;19929;-56
2021/07/08 14:27:56;;;;;;;;;;;24.30;77.50;;;;;;5186770;28;20909;-56
2021/07/08 14:30:29;;;;;;;;;;;24.20;77.60;;;;;;5195138;28;19931;-58
2021/07/08 14:33:04;;;;;;;;;;;24.20;77.60;;;;;;5194158;28;20365;-57
2021/07/08 14:35:37;;;;;;;;;;;24.20;77.70;;;;;;5202135;28;20543;-57
2021/07/08 14:38:09;;;;;;;;;;;24.20;77.70;;;;;;5199420;28;19924;-57
2021/07/08 14:40:42;;;;;;;;;;;24.20;77.70;;;;;;5200362;28;20289;-58
2021/07/08 14:43:36;;;;;;;;;;;24.20;77.70;;;;;;5199035;28;19924;-58
2021/07/08 14:46:10;;;;;;;;;;;24.20;77.80;;;;;;5202340;28;19940;-58
2021/07/08 14:48:47;;;;;;;;;;;24.20;77.70;;;;;;5201963;28;19928;-58
2021/07/08 14:51:19;;;;;;;;;;;24.10;77.70;;;;;;5198476;28;19920;-56
2021/07/08 14:53:55;;;;;;;;;;;24.10;77.70;;;;;;5199031;28;20320;-56
2021/07/08 14:56:28;;;;;;;;;;;24.10;77.70;;;;;;5199971;28;19924;-58